createdAt,value
2023-03-25T00:00:24.636Z,7.72
2023-03-25T00:02:52.611Z,8.80
2023-03-25T00:05:21.461Z,7.00
2023-03-25T00:07:51.518Z,5.55
2023-03-25T00:10:18.117Z,11.15
2023-03-25T00:12:44.788Z,6.20
2023-03-25T00:15:12.611Z,7.40
2023-03-25T00:17:39.239Z,5.65
2023-03-25T00:20:09.621Z,16.30
2023-03-25T00:22:40.843Z,7.18
2023-03-25T00:25:17.729Z,6.35
2023-03-25T00:27:46.378Z,4.82
2023-03-25T00:30:14.478Z,9.75
2023-03-25T00:32:41.059Z,8.43
2023-03-25T00:35:08.427Z,11.23
2023-03-25T00:37:34.904Z,9.88
2023-03-25T00:40:01.511Z,10.38
2023-03-25T00:42:27.949Z,8.60
2023-03-25T00:44:54.467Z,11.25
2023-03-25T00:47:22.027Z,8.95
2023-03-25T00:49:49.841Z,8.73
2023-03-25T00:52:16.841Z,8.50
2023-03-25T00:54:43.861Z,8.30
2023-03-25T00:57:10.441Z,12.48
2023-03-25T00:59:36.857Z,8.80
2023-03-25T01:02:03.663Z,8.88
2023-03-25T01:04:30.228Z,8.93
2023-03-25T01:06:56.849Z,10.27
2023-03-25T01:09:23.371Z,10.93
2023-03-25T01:11:50.256Z,11.70
2023-03-25T01:14:24.031Z,14.07
2023-03-25T01:16:50.577Z,11.75
2023-03-25T01:19:17.125Z,13.63
2023-03-25T01:21:45.178Z,9.55
2023-03-25T01:24:14.327Z,9.95
2023-03-25T01:26:43.484Z,11.45
2023-03-25T01:29:11.126Z,8.82
2023-03-25T01:31:37.600Z,8.18
2023-03-25T01:34:04.628Z,8.75
2023-03-25T01:36:31.266Z,8.57
2023-03-25T01:38:59.348Z,8.05
2023-03-25T01:41:33.210Z,8.95
2023-03-25T01:44:10.480Z,8.27
2023-03-25T01:46:39.288Z,12.95
2023-03-25T01:49:09.371Z,7.80
2023-03-25T01:51:40.727Z,9.15
2023-03-25T01:54:07.969Z,6.88
2023-03-25T01:56:38.344Z,4.38
2023-03-25T01:59:06.766Z,9.73
2023-03-25T02:01:33.254Z,10.45
2023-03-25T02:04:11.508Z,7.55
2023-03-25T02:06:44.711Z,8.40
2023-03-25T02:09:13.571Z,6.72
2023-03-25T02:11:40.792Z,10.13
2023-03-25T02:14:12.354Z,6.18
2023-03-25T02:16:50.837Z,9.10
2023-03-25T02:19:54.520Z,7.37
2023-03-25T02:22:54.636Z,6.60
2023-03-25T02:25:36.266Z,9.27
2023-03-25T02:28:12.565Z,9.77
2023-03-25T02:31:12.768Z,6.70
2023-03-25T02:34:12.770Z,6.15
2023-03-25T02:36:39.648Z,9.00
2023-03-25T02:39:24.446Z,6.32
2023-03-25T02:42:01.665Z,11.52
2023-03-25T02:44:36.814Z,14.70
2023-03-25T02:47:08.867Z,15.40
2023-03-25T02:49:39.182Z,8.07
2023-03-25T02:52:15.770Z,9.18
2023-03-25T02:54:45.162Z,11.98
2023-03-25T02:59:41.652Z,6.13
2023-03-25T03:02:10.213Z,9.40
2023-03-25T03:04:55.854Z,6.87
2023-03-25T03:07:34.916Z,7.80
2023-03-25T03:10:20.384Z,8.45
2023-03-25T03:12:55.653Z,8.90
2023-03-25T03:15:37.225Z,8.80
2023-03-25T03:18:38.015Z,4.82
2023-03-25T03:21:13.630Z,11.68
2023-03-25T03:23:48.942Z,7.47
2023-03-25T03:26:34.283Z,7.90
2023-03-25T03:29:20.261Z,9.68
2023-03-25T03:32:06.283Z,8.52
2023-03-25T03:34:44.549Z,5.95
2023-03-25T03:37:18.441Z,10.82
2023-03-25T03:39:47.737Z,7.07
2023-03-25T03:42:38.100Z,9.20
2023-03-25T03:45:13.771Z,8.75
2023-03-25T03:47:47.559Z,12.77
2023-03-25T03:50:22.180Z,8.55
2023-03-25T03:53:00.651Z,7.28
2023-03-25T03:55:37.817Z,10.00
2023-03-25T03:58:15.191Z,9.73
2023-03-25T04:00:52.496Z,6.93
2023-03-25T04:03:28.263Z,10.05
2023-03-25T04:06:15.836Z,10.48
2023-03-25T04:09:27.042Z,10.07
2023-03-25T04:12:05.697Z,8.00
2023-03-25T04:14:32.638Z,6.25
2023-03-25T04:16:59.678Z,10.52
2023-03-25T04:19:26.695Z,9.30
2023-03-25T04:21:53.807Z,6.15
2023-03-25T04:24:20.438Z,10.20
2023-03-25T04:26:47.623Z,7.28
2023-03-25T04:29:14.098Z,9.30
2023-03-25T04:31:46.649Z,6.82
2023-03-25T04:34:16.617Z,7.13
2023-03-25T04:36:43.530Z,6.78
2023-03-25T04:39:11.863Z,6.55
2023-03-25T04:41:39.142Z,10.73
2023-03-25T04:44:08.040Z,11.90
2023-03-25T04:46:36.432Z,5.82
2023-03-25T04:49:06.004Z,7.43
2023-03-25T04:51:32.985Z,11.18
2023-03-25T04:53:59.588Z,7.85
2023-03-25T04:56:26.389Z,8.57
2023-03-25T04:58:53.419Z,5.38
2023-03-25T05:01:32.320Z,6.95
2023-03-25T05:04:07.642Z,9.65
2023-03-25T05:06:38.284Z,6.22
2023-03-25T05:09:05.861Z,10.75
2023-03-25T05:11:34.451Z,5.82
2023-03-25T05:14:01.045Z,9.52
2023-03-25T05:16:27.521Z,7.32
2023-03-25T05:18:54.058Z,6.22
2023-03-25T05:21:21.583Z,11.57
2023-03-25T05:23:48.048Z,7.65
2023-03-25T05:26:14.956Z,8.32
2023-03-25T05:28:42.223Z,9.23
2023-03-25T05:31:09.320Z,9.80
2023-03-25T05:33:43.318Z,9.35
2023-03-25T05:36:11.679Z,7.53
2023-03-25T05:38:41.631Z,7.85
2023-03-25T05:41:10.633Z,10.50
2023-03-25T05:43:38.302Z,11.63
2023-03-25T05:46:05.301Z,9.32
2023-03-25T05:48:33.146Z,11.18
2023-03-25T05:51:04.389Z,11.82
2023-03-25T05:53:30.952Z,10.35
2023-03-25T05:55:57.602Z,12.18
2023-03-25T05:58:25.097Z,10.20
2023-03-25T06:00:51.777Z,13.70
2023-03-25T06:03:20.806Z,6.97
2023-03-25T06:05:48.393Z,5.65
2023-03-25T06:08:17.111Z,8.00
2023-03-25T06:10:45.684Z,12.17
2023-03-25T06:13:12.211Z,11.93
2023-03-25T06:15:40.604Z,12.00
2023-03-25T06:18:07.324Z,9.95
2023-03-25T06:20:33.857Z,12.15
2023-03-25T06:23:01.876Z,11.45
2023-03-25T06:25:28.520Z,16.88
2023-03-25T06:27:56.195Z,12.98
2023-03-25T06:30:22.835Z,15.65
2023-03-25T06:32:50.903Z,9.95
2023-03-25T06:35:19.843Z,12.90
2023-03-25T06:37:48.107Z,13.10
2023-03-25T06:40:15.470Z,10.13
2023-03-25T06:42:42.108Z,9.30
2023-03-25T06:45:09.163Z,13.50
2023-03-25T06:47:35.834Z,12.13
2023-03-25T06:50:02.315Z,10.93
2023-03-25T06:52:28.770Z,9.95
2023-03-25T06:54:55.470Z,14.10
2023-03-25T06:57:22.004Z,9.70
2023-03-25T06:59:49.616Z,11.63
2023-03-25T07:02:16.099Z,11.48
2023-03-25T07:04:42.740Z,9.70
2023-03-25T07:07:09.608Z,12.15
2023-03-25T07:09:36.122Z,8.15
2023-03-25T07:12:03.012Z,10.05
2023-03-25T07:14:29.636Z,7.72
2023-03-25T07:16:56.327Z,9.88
2023-03-25T07:19:23.126Z,7.70
2023-03-25T07:21:49.620Z,8.52
2023-03-25T07:24:16.064Z,9.27
2023-03-25T07:26:42.543Z,13.30
2023-03-25T07:29:08.997Z,5.72
2023-03-25T07:31:35.609Z,9.65
2023-03-25T07:34:02.851Z,14.10
2023-03-25T07:36:29.387Z,6.10
2023-03-25T07:38:57.122Z,6.07
2023-03-25T07:41:23.813Z,10.73
2023-03-25T07:43:50.306Z,9.20
2023-03-25T07:46:16.792Z,8.02
2023-03-25T07:48:43.311Z,7.60
2023-03-25T07:51:10.019Z,7.75
2023-03-25T07:53:39.027Z,8.45
2023-03-25T07:56:06.700Z,8.50
2023-03-25T07:58:33.143Z,8.70
2023-03-25T08:00:59.593Z,5.97
2023-03-25T08:03:27.864Z,13.93
2023-03-25T08:05:54.648Z,10.70
2023-03-25T08:08:21.186Z,7.15
2023-03-25T08:10:48.093Z,10.30
2023-03-25T08:13:14.616Z,7.07
2023-03-25T08:15:41.140Z,6.10
2023-03-25T08:18:07.869Z,8.00
2023-03-25T08:20:34.803Z,9.27
2023-03-25T08:23:02.748Z,8.18
2023-03-25T08:25:29.888Z,9.63
2023-03-25T08:27:56.640Z,8.05
2023-03-25T08:30:23.363Z,5.47
2023-03-25T08:32:54.611Z,10.70
2023-03-25T08:35:23.635Z,10.32
2023-03-25T08:37:50.803Z,10.10
2023-03-25T08:40:17.302Z,13.60
2023-03-25T08:42:44.228Z,13.93
2023-03-25T08:45:11.536Z,8.38
2023-03-25T08:47:38.331Z,10.25
2023-03-25T08:50:05.756Z,8.82
2023-03-25T08:52:32.176Z,9.82
2023-03-25T08:54:58.685Z,11.55
2023-03-25T08:57:25.451Z,15.15
2023-03-25T08:59:52.180Z,14.40
2023-03-25T09:02:18.615Z,17.38
2023-03-25T09:04:51.873Z,13.38
2023-03-25T09:07:19.750Z,14.98
2023-03-25T09:09:46.760Z,14.20
2023-03-25T09:12:13.354Z,17.13
2023-03-25T09:14:39.841Z,17.73
2023-03-25T09:17:06.568Z,9.55
2023-03-25T09:19:37.769Z,13.05
2023-03-25T09:22:04.434Z,13.10
2023-03-25T09:24:33.883Z,10.38
2023-03-25T09:29:28.464Z,9.57
2023-03-25T09:31:55.285Z,17.92
2023-03-25T09:34:22.523Z,14.25
2023-03-25T09:36:49.001Z,15.88
2023-03-25T09:39:15.683Z,12.90
2023-03-25T09:42:13.458Z,14.32
2023-03-25T09:45:11.130Z,16.65
2023-03-25T09:47:41.398Z,11.52
2023-03-25T09:50:14.266Z,14.73
2023-03-25T09:52:55.447Z,9.50
2023-03-25T09:55:26.274Z,15.77
2023-03-25T09:58:05.069Z,14.93
2023-03-25T10:00:31.987Z,14.77
2023-03-25T10:03:14.469Z,14.13
2023-03-25T10:05:55.802Z,14.07
2023-03-25T10:08:43.609Z,12.63
2023-03-25T10:11:25.937Z,15.77
2023-03-25T10:13:59.315Z,12.05
2023-03-25T10:16:47.727Z,15.40
2023-03-25T10:19:42.785Z,18.00
2023-03-25T10:22:17.523Z,14.07
2023-03-25T10:24:53.354Z,14.30
2023-03-25T10:27:27.124Z,9.63
2023-03-25T10:29:59.628Z,11.13
2023-03-25T10:32:34.666Z,12.60
2023-03-25T10:35:05.452Z,11.70
2023-03-25T10:37:35.633Z,12.40
2023-03-25T10:40:17.657Z,14.40
2023-03-25T10:43:04.977Z,15.45
2023-03-25T10:45:32.662Z,18.40
2023-03-25T10:48:28.073Z,16.58
2023-03-25T10:51:04.899Z,12.38
2023-03-25T10:53:31.478Z,15.73
2023-03-25T10:56:13.265Z,21.05
2023-03-25T10:58:42.040Z,14.85
2023-03-25T11:01:18.217Z,14.10
2023-03-25T11:03:49.160Z,17.55
2023-03-25T11:06:29.610Z,14.68
2023-03-25T11:09:08.417Z,15.32
2023-03-25T11:11:35.862Z,13.43
2023-03-25T11:14:03.484Z,10.98
2023-03-25T11:16:35.701Z,17.63
2023-03-25T11:19:04.097Z,17.08
2023-03-25T11:21:32.979Z,14.85
2023-03-25T11:24:00.998Z,13.55
2023-03-25T11:26:38.435Z,11.65
2023-03-25T11:29:14.207Z,10.90
2023-03-25T11:31:42.842Z,12.10
2023-03-25T11:34:12.143Z,17.37
2023-03-25T11:36:46.954Z,18.00
2023-03-25T11:39:30.374Z,15.77
2023-03-25T11:41:58.662Z,15.90
2023-03-25T11:44:33.008Z,12.10
2023-03-25T11:47:06.083Z,9.68
2023-03-25T11:49:38.739Z,11.05
2023-03-25T11:52:10.387Z,14.32
2023-03-25T11:54:37.635Z,16.45
2023-03-25T11:57:10.806Z,13.05
2023-03-25T11:59:43.144Z,11.80
2023-03-25T12:02:36.720Z,8.98
2023-03-25T12:05:16.544Z,12.52
2023-03-25T12:07:45.816Z,11.07
2023-03-25T12:10:29.354Z,13.30
2023-03-25T12:13:07.902Z,12.70
2023-03-25T12:15:59.077Z,8.00
2023-03-25T12:18:41.715Z,14.40
2023-03-25T12:21:32.555Z,13.90
2023-03-25T12:24:36.659Z,13.05
2023-03-25T12:27:19.926Z,12.65
2023-03-25T12:29:56.219Z,10.63
2023-03-25T12:32:34.927Z,12.02
2023-03-25T12:35:08.506Z,19.17
2023-03-25T12:37:41.087Z,16.23
2023-03-25T12:40:37.423Z,14.05
2023-03-25T12:43:05.697Z,13.85
2023-03-25T12:45:41.748Z,13.68
2023-03-25T12:48:21.899Z,16.80
2023-03-25T12:50:53.559Z,15.35
2023-03-25T12:53:19.969Z,11.48
2023-03-25T12:55:56.551Z,15.07
2023-03-25T12:58:59.850Z,12.23
2023-03-25T13:01:42.279Z,18.55
2023-03-25T13:04:18.016Z,14.57
2023-03-25T13:07:04.688Z,8.70
2023-03-25T13:09:36.164Z,13.10
2023-03-25T13:12:14.683Z,11.35
2023-03-25T13:15:27.173Z,13.57
2023-03-25T13:18:03.851Z,14.20
2023-03-25T13:20:35.113Z,14.23
2023-03-25T13:23:05.696Z,13.70
2023-03-25T13:25:38.219Z,11.63
2023-03-25T13:28:10.744Z,18.00
2023-03-25T13:30:39.581Z,12.68
2023-03-25T13:33:30.324Z,9.90
2023-03-25T13:36:05.795Z,12.45
2023-03-25T13:38:37.051Z,14.20
2023-03-25T13:41:12.063Z,13.95
2023-03-25T13:43:44.573Z,11.27
2023-03-25T13:46:19.912Z,10.73
2023-03-25T13:48:58.254Z,15.18
2023-03-25T13:51:24.836Z,8.88
2023-03-25T13:53:54.297Z,20.33
2023-03-25T13:59:26.106Z,12.18
2023-03-25T14:02:17.498Z,17.50
2023-03-25T14:04:59.315Z,13.23
2023-03-25T14:07:44.724Z,19.67
2023-03-25T14:10:28.090Z,14.07
2023-03-25T14:12:58.982Z,14.77
2023-03-25T14:15:28.672Z,15.75
2023-03-25T14:17:56.037Z,11.52
2023-03-25T14:20:31.929Z,16.65
2023-03-25T14:23:04.745Z,15.38
2023-03-25T14:25:37.824Z,14.40
2023-03-25T14:28:06.123Z,10.02
2023-03-25T14:30:33.647Z,12.23
2023-03-25T14:33:03.750Z,16.20
2023-03-25T14:35:39.172Z,15.05
2023-03-25T14:38:08.715Z,13.65
2023-03-25T14:40:59.585Z,12.50
2023-03-25T14:43:46.138Z,19.00
2023-03-25T14:46:13.282Z,10.70
2023-03-25T14:48:45.776Z,14.02
2023-03-25T14:51:23.399Z,17.20
2023-03-25T14:54:03.167Z,14.05
2023-03-25T14:59:15.577Z,9.95
2023-03-25T15:01:44.127Z,11.88
2023-03-25T15:04:24.612Z,14.53
2023-03-25T15:06:51.861Z,16.35
2023-03-25T15:09:20.795Z,13.18
2023-03-25T15:11:59.525Z,13.07
2023-03-25T15:14:36.287Z,13.30
2023-03-25T15:17:06.428Z,13.73
2023-03-25T15:20:11.865Z,17.58
2023-03-25T15:22:38.982Z,16.67
2023-03-25T15:25:16.643Z,15.20
2023-03-25T15:27:49.032Z,14.88
2023-03-25T15:30:37.558Z,13.88
2023-03-25T15:33:21.460Z,17.67
2023-03-25T15:36:12.365Z,19.42
2023-03-25T15:39:06.650Z,17.98
2023-03-25T15:41:41.813Z,16.98
2023-03-25T15:44:46.060Z,15.77
2023-03-25T15:47:36.787Z,15.23
2023-03-25T15:50:24.499Z,15.93
2023-03-25T15:53:02.971Z,10.05
2023-03-25T15:55:53.407Z,15.30
2023-03-25T15:58:31.068Z,14.45
2023-03-25T16:01:08.334Z,15.02
2023-03-25T16:03:35.161Z,14.93
2023-03-25T16:06:06.590Z,12.70
2023-03-25T16:08:37.487Z,11.25
2023-03-25T16:11:25.912Z,13.00
2023-03-25T16:14:12.637Z,10.82
2023-03-25T16:16:43.764Z,20.38
2023-03-25T16:19:16.593Z,14.10
2023-03-25T16:21:43.265Z,11.85
2023-03-25T16:24:12.734Z,14.15
2023-03-25T16:29:22.854Z,13.17
2023-03-25T16:32:01.356Z,14.70
2023-03-25T16:34:34.327Z,13.48
2023-03-25T16:37:01.585Z,15.35
2023-03-25T16:39:34.290Z,12.15
2023-03-25T16:42:25.951Z,13.20
2023-03-25T16:44:52.896Z,13.65
2023-03-25T16:47:21.106Z,17.08
2023-03-25T16:49:50.273Z,13.38
2023-03-25T16:52:22.383Z,15.23
2023-03-25T16:55:28.263Z,12.68
2023-03-25T16:57:54.889Z,16.83
2023-03-25T17:00:24.356Z,11.27
2023-03-25T17:05:25.476Z,14.38
2023-03-25T17:08:04.785Z,10.88
2023-03-25T17:10:43.275Z,18.05
2023-03-25T17:13:12.963Z,15.05
2023-03-25T17:15:39.850Z,10.48
2023-03-25T17:18:12.980Z,14.48
2023-03-25T17:20:42.388Z,13.40
2023-03-25T17:25:57.917Z,11.85
2023-03-25T17:28:39.781Z,10.07
2023-03-25T17:31:30.281Z,15.73
2023-03-25T17:34:07.938Z,15.68
2023-03-25T17:36:37.771Z,13.93
2023-03-25T17:39:13.146Z,10.90
2023-03-25T17:41:40.216Z,18.65
2023-03-25T17:44:07.379Z,12.50
2023-03-25T17:46:35.020Z,13.05
2023-03-25T17:49:01.686Z,10.20
2023-03-25T17:51:30.443Z,15.80
2023-03-25T17:53:57.484Z,14.73
2023-03-25T17:56:28.151Z,15.52
2023-03-25T17:58:59.370Z,16.85
2023-03-25T18:01:28.077Z,13.68
2023-03-25T18:03:55.091Z,15.93
2023-03-25T18:06:21.968Z,13.25
2023-03-25T18:08:49.220Z,14.38
2023-03-25T18:11:15.966Z,15.10
2023-03-25T18:13:47.696Z,13.25
2023-03-25T18:16:19.978Z,18.48
2023-03-25T18:18:47.142Z,13.27
2023-03-25T18:21:16.205Z,15.43
2023-03-25T18:23:47.907Z,13.57
2023-03-25T18:26:18.714Z,12.15
2023-03-25T18:28:46.311Z,10.90
2023-03-25T18:31:17.141Z,13.13
2023-03-25T18:33:48.303Z,11.48
2023-03-25T18:36:14.822Z,14.43
2023-03-25T18:38:41.674Z,18.52
2023-03-25T18:41:11.338Z,12.00
2023-03-25T18:43:37.785Z,61.00
2023-03-25T18:46:04.512Z,17.17
2023-03-25T18:48:31.093Z,11.63
2023-03-25T18:50:59.170Z,16.05
2023-03-25T18:53:28.349Z,17.25
2023-03-25T18:55:59.805Z,21.33
2023-03-25T18:58:30.764Z,17.58
2023-03-25T19:00:58.055Z,15.57
2023-03-25T19:03:30.598Z,15.18
2023-03-25T19:05:59.277Z,16.08
2023-03-25T19:08:26.665Z,24.02
2023-03-25T19:10:57.405Z,16.33
2023-03-25T19:13:28.563Z,13.00
2023-03-25T19:15:55.192Z,13.35
2023-03-25T19:18:27.859Z,17.40
2023-03-25T19:20:55.232Z,26.40
2023-03-25T19:23:22.252Z,22.33
2023-03-25T19:25:51.705Z,21.02
2023-03-25T19:30:48.977Z,15.65
2023-03-25T19:33:15.990Z,15.98
2023-03-25T19:35:42.882Z,19.98
2023-03-25T19:38:09.566Z,19.00
2023-03-25T19:40:38.054Z,19.27
2023-03-25T19:43:07.624Z,19.03
2023-03-25T19:48:01.208Z,22.90
2023-03-25T19:50:31.998Z,30.70
2023-03-25T19:53:00.552Z,19.05
2023-03-25T19:55:27.645Z,28.20
2023-03-25T19:57:54.679Z,25.30
2023-03-25T20:00:23.712Z,23.55
2023-03-25T20:02:52.188Z,24.25
2023-03-25T20:05:21.023Z,30.00
2023-03-25T20:07:48.190Z,21.60
2023-03-25T20:10:20.153Z,28.85
2023-03-25T20:12:48.540Z,25.98
2023-03-25T20:15:16.577Z,24.23
2023-03-25T20:17:43.258Z,21.30
2023-03-25T20:20:12.338Z,23.98
2023-03-25T20:22:39.920Z,23.85
2023-03-25T20:25:07.717Z,18.55
2023-03-25T20:27:34.360Z,29.75
2023-03-25T20:30:01.325Z,22.95
2023-03-25T20:32:37.710Z,24.63
2023-03-25T20:35:07.328Z,29.27
2023-03-25T20:37:36.787Z,21.35
2023-03-25T20:42:30.619Z,27.08
2023-03-25T20:44:57.039Z,26.55
2023-03-25T20:47:23.469Z,26.52
2023-03-25T20:49:49.964Z,23.25
2023-03-25T20:52:16.430Z,21.60
2023-03-25T20:54:42.993Z,20.08
2023-03-25T20:57:09.553Z,21.40
2023-03-25T20:59:36.581Z,29.85
2023-03-25T21:02:03.923Z,28.75
2023-03-25T21:04:30.665Z,29.13
2023-03-25T21:06:57.371Z,24.35
2023-03-25T21:09:23.998Z,23.90
2023-03-25T21:11:50.817Z,19.83
2023-03-25T21:14:18.734Z,29.77
2023-03-25T21:16:45.802Z,25.17
2023-03-25T21:19:13.226Z,16.92
2023-03-25T21:21:40.589Z,27.30
2023-03-25T21:24:07.566Z,25.42
2023-03-25T21:26:34.816Z,22.92
2023-03-25T21:29:01.447Z,31.83
2023-03-25T21:31:28.981Z,26.63
2023-03-25T21:33:57.227Z,29.13
2023-03-25T21:36:27.310Z,24.30
2023-03-25T21:38:59.452Z,31.75
2023-03-25T21:41:27.619Z,27.75
2023-03-25T21:43:54.286Z,23.95
2023-03-25T21:46:27.140Z,24.77
2023-03-25T21:48:55.141Z,27.10
2023-03-25T21:51:21.592Z,25.20
2023-03-25T21:53:48.117Z,24.05
2023-03-25T21:56:20.306Z,25.45
2023-03-25T21:58:48.478Z,24.42
2023-03-25T22:01:19.556Z,23.10
2023-03-25T22:03:47.137Z,19.23
2023-03-25T22:06:19.335Z,20.20
2023-03-25T22:08:46.462Z,21.55
2023-03-25T22:11:21.935Z,22.88
2023-03-25T22:13:49.521Z,22.70
2023-03-25T22:16:18.378Z,23.73
2023-03-25T22:18:46.032Z,25.00
2023-03-25T22:21:20.028Z,21.30
2023-03-25T22:23:48.213Z,28.67
2023-03-25T22:26:16.487Z,24.73
2023-03-25T22:28:44.158Z,21.77
2023-03-25T22:31:12.551Z,22.75
2023-03-25T22:33:39.892Z,25.90
2023-03-25T22:36:11.748Z,29.15
2023-03-25T22:38:44.450Z,28.38
2023-03-25T22:41:13.152Z,28.10
2023-03-25T22:43:39.944Z,27.00
2023-03-25T22:46:07.847Z,24.20
2023-03-25T22:48:35.517Z,27.80
2023-03-25T22:51:02.016Z,26.25
2023-03-25T22:53:28.658Z,23.88
2023-03-25T22:55:56.725Z,27.15
2023-03-25T22:58:26.569Z,26.73
2023-03-25T23:00:54.906Z,26.02
2023-03-25T23:03:23.498Z,26.77
2023-03-25T23:06:02.178Z,26.15
2023-03-25T23:08:31.758Z,20.97
2023-03-25T23:13:33.897Z,26.15
2023-03-25T23:16:03.790Z,25.55
2023-03-25T23:18:30.596Z,25.10
2023-03-25T23:20:59.305Z,34.58
2023-03-25T23:23:26.694Z,23.20
2023-03-25T23:26:16.508Z,26.90
2023-03-25T23:28:44.578Z,22.55
2023-03-25T23:31:14.104Z,26.02
2023-03-25T23:33:41.683Z,26.42
2023-03-25T23:36:09.627Z,29.38
2023-03-25T23:38:37.002Z,34.22
2023-03-25T23:41:06.223Z,33.72
2023-03-25T23:43:33.906Z,27.73
2023-03-25T23:46:01.101Z,23.75
2023-03-25T23:48:28.345Z,26.58
2023-03-25T23:50:56.698Z,25.15
2023-03-25T23:53:27.398Z,25.92
2023-03-25T23:55:55.527Z,30.15
2023-03-25T23:58:25.290Z,25.42
